LNK202 FQBR-FALE
Flight info
| Callsign | LNK202 |
|---|---|
| Flight time | 1h 42m |
| Altitude | 34000 |
| Route | APMUD1B ETLAM UM310 VMA UB529 ITMIL ITMIL1A |
| Aircraft | B738/M-SDE2E3FGHIRWXY/LB1 |
Departure
| Time | 2026-05-07 17:36 |
|---|---|
| Airport | Beira International Airport (FQBR) |
Arrival
| Time | 2026-05-07 19:18 |
|---|---|
| Airport | King Shaka International Airport (FALE) |
| Time | Latitude | Longitude | Altitude | Speed | Heading |
|---|---|---|---|---|---|
| 2026-05-07 16:57 | -19.79736 | 34.90251 | 41 ft | 0 kts | 17° |
| 2026-05-07 17:29 | -19.79719 | 34.90257 | 40 ft | 6 kts | 18° |
| 2026-05-07 17:29 | -19.79697 | 34.90292 | 41 ft | 6 kts | 87° |
| 2026-05-07 17:30 | -19.79707 | 34.90336 | 41 ft | 6 kts | 103° |
| 2026-05-07 17:30 | -19.79716 | 34.90378 | 41 ft | 6 kts | 103° |
| 2026-05-07 17:30 | -19.79719 | 34.90389 | 39 ft | 0 kts | 103° |
| 2026-05-07 17:31 | -19.79714 | 34.90423 | 41 ft | 8 kts | 64° |
| 2026-05-07 17:31 | -19.79667 | 34.90452 | 41 ft | 8 kts | 13° |
| 2026-05-07 17:31 | -19.79660 | 34.90454 | 41 ft | 0 kts | 10° |
| 2026-05-07 17:31 | -19.79648 | 34.90456 | 41 ft | 4 kts | 10° |
| 2026-05-07 17:32 | -19.79605 | 34.90468 | 40 ft | 8 kts | 29° |
| 2026-05-07 17:32 | -19.79583 | 34.90521 | 40 ft | 10 kts | 89° |
| 2026-05-07 17:32 | -19.79599 | 34.90606 | 40 ft | 14 kts | 104° |
| 2026-05-07 17:32 | -19.79617 | 34.90679 | 40 ft | 18 kts | 104° |
| 2026-05-07 17:33 | -19.79657 | 34.90831 | 42 ft | 24 kts | 105° |
| 2026-05-07 17:33 | -19.79703 | 34.91021 | 44 ft | 30 kts | 105° |
| 2026-05-07 17:33 | -19.79762 | 34.91249 | 41 ft | 35 kts | 105° |
| 2026-05-07 17:33 | -19.79829 | 34.91512 | 44 ft | 38 kts | 105° |
| 2026-05-07 17:34 | -19.79893 | 34.91707 | 44 ft | 23 kts | 132° |
| 2026-05-07 17:34 | -19.79986 | 34.91798 | 43 ft | 5 kts | 111° |
| 2026-05-07 17:34 | -19.79990 | 34.91808 | 43 ft | 0 kts | 105° |
| 2026-05-07 17:34 | -19.79989 | 34.91812 | 43 ft | 4 kts | 92° |
| 2026-05-07 17:35 | -19.79948 | 34.91851 | 42 ft | 7 kts | 9° |
| 2026-05-07 17:35 | -19.79916 | 34.91841 | 42 ft | 0 kts | 313° |
| 2026-05-07 17:35 | -19.79913 | 34.91826 | 42 ft | 16 kts | 284° |
| 2026-05-07 17:35 | -19.79818 | 34.91452 | 44 ft | 94 kts | 285° |
| 2026-05-07 17:36 | -19.79587 | 34.90508 | 43 ft | 167 kts | 283° |
| 2026-05-07 17:36 | -19.79259 | 34.89165 | 524 ft | 194 kts | 279° |
| 2026-05-07 17:36 | -19.79028 | 34.87773 | 1592 ft | 198 kts | 279° |
| 2026-05-07 17:36 | -19.78760 | 34.86275 | 2183 ft | 211 kts | 268° |
| 2026-05-07 17:37 | -19.79260 | 34.84854 | 2729 ft | 208 kts | 225° |
| 2026-05-07 17:37 | -19.80487 | 34.84096 | 3296 ft | 209 kts | 198° |
| 2026-05-07 17:37 | -19.81901 | 34.83639 | 3709 ft | 221 kts | 197° |
| 2026-05-07 17:37 | -19.83450 | 34.83157 | 3979 ft | 237 kts | 197° |
| 2026-05-07 17:38 | -19.85089 | 34.82649 | 4213 ft | 258 kts | 197° |
| 2026-05-07 17:38 | -19.86792 | 34.82120 | 4463 ft | 265 kts | 197° |
| 2026-05-07 17:38 | -19.88560 | 34.81567 | 4726 ft | 269 kts | 197° |
| 2026-05-07 17:38 | -19.90364 | 34.81000 | 4961 ft | 269 kts | 197° |
| 2026-05-07 17:39 | -19.92147 | 34.80438 | 5198 ft | 269 kts | 198° |
| 2026-05-07 17:39 | -19.93957 | 34.79866 | 5333 ft | 276 kts | 198° |
| 2026-05-07 17:39 | -19.95809 | 34.79279 | 5341 ft | 277 kts | 198° |
| 2026-05-07 17:39 | -19.97664 | 34.78691 | 5349 ft | 280 kts | 198° |
| 2026-05-07 17:40 | -19.99537 | 34.78096 | 5353 ft | 279 kts | 198° |
| 2026-05-07 17:40 | -20.01377 | 34.77512 | 5535 ft | 273 kts | 198° |
| 2026-05-07 17:40 | -20.03193 | 34.76935 | 6035 ft | 277 kts | 198° |
| 2026-05-07 17:40 | -20.05068 | 34.76338 | 6496 ft | 282 kts | 198° |
| 2026-05-07 17:41 | -20.06949 | 34.75740 | 6946 ft | 284 kts | 198° |
| 2026-05-07 17:41 | -20.08851 | 34.75134 | 7355 ft | 286 kts | 198° |
| 2026-05-07 17:41 | -20.10745 | 34.74532 | 7726 ft | 285 kts | 198° |
| 2026-05-07 17:41 | -20.12663 | 34.73922 | 8168 ft | 288 kts | 198° |
| 2026-05-07 17:42 | -20.14602 | 34.73305 | 8612 ft | 290 kts | 199° |
| 2026-05-07 17:42 | -20.16514 | 34.72695 | 9043 ft | 292 kts | 199° |
| 2026-05-07 17:42 | -20.18473 | 34.72065 | 9274 ft | 291 kts | 200° |
| 2026-05-07 17:42 | -20.20401 | 34.71398 | 9822 ft | 292 kts | 201° |
| 2026-05-07 17:43 | -20.22361 | 34.70695 | 10240 ft | 303 kts | 201° |
| 2026-05-07 17:43 | -20.24399 | 34.69956 | 10369 ft | 323 kts | 201° |
| 2026-05-07 17:43 | -20.26593 | 34.69162 | 10500 ft | 341 kts | 201° |
| 2026-05-07 17:43 | -20.28886 | 34.68334 | 10774 ft | 351 kts | 201° |
| 2026-05-07 17:44 | -20.31234 | 34.67491 | 11111 ft | 358 kts | 201° |
| 2026-05-07 17:44 | -20.33591 | 34.66646 | 11511 ft | 363 kts | 201° |
| 2026-05-07 17:44 | -20.35997 | 34.65784 | 12008 ft | 365 kts | 201° |
| 2026-05-07 17:44 | -20.38412 | 34.64920 | 12499 ft | 366 kts | 201° |
| 2026-05-07 17:45 | -20.40814 | 34.64059 | 12948 ft | 369 kts | 201° |
| 2026-05-07 17:45 | -20.43264 | 34.63181 | 13406 ft | 371 kts | 201° |
| 2026-05-07 17:45 | -20.45731 | 34.62296 | 13838 ft | 374 kts | 201° |
| 2026-05-07 17:45 | -20.48217 | 34.61404 | 14214 ft | 377 kts | 201° |
| 2026-05-07 17:46 | -20.50684 | 34.60518 | 14563 ft | 380 kts | 201° |
| 2026-05-07 17:46 | -20.53202 | 34.59614 | 14940 ft | 382 kts | 201° |
| 2026-05-07 17:46 | -20.55738 | 34.58702 | 15296 ft | 385 kts | 201° |
| 2026-05-07 17:46 | -20.58300 | 34.57782 | 15657 ft | 388 kts | 201° |
| 2026-05-07 17:47 | -20.60843 | 34.56867 | 16006 ft | 391 kts | 201° |
| 2026-05-07 17:47 | -20.63435 | 34.55935 | 16357 ft | 394 kts | 201° |
| 2026-05-07 17:47 | -20.66053 | 34.54994 | 16710 ft | 396 kts | 201° |
| 2026-05-07 17:47 | -20.68650 | 34.54059 | 17053 ft | 399 kts | 201° |
| 2026-05-07 17:48 | -20.71315 | 34.53100 | 17390 ft | 401 kts | 201° |
| 2026-05-07 17:48 | -20.73962 | 34.52146 | 17723 ft | 404 kts | 201° |
| 2026-05-07 17:48 | -20.76626 | 34.51186 | 18049 ft | 406 kts | 201° |
| 2026-05-07 17:48 | -20.79326 | 34.50213 | 18357 ft | 408 kts | 201° |
| 2026-05-07 17:49 | -20.82005 | 34.49247 | 18639 ft | 410 kts | 202° |
| 2026-05-07 17:49 | -20.84723 | 34.48267 | 18935 ft | 412 kts | 202° |
| 2026-05-07 17:49 | -20.87420 | 34.47294 | 19213 ft | 413 kts | 202° |
| 2026-05-07 17:49 | -20.90166 | 34.46303 | 19493 ft | 415 kts | 202° |
| 2026-05-07 17:50 | -20.92888 | 34.45320 | 19761 ft | 417 kts | 202° |
| 2026-05-07 17:50 | -20.95659 | 34.44319 | 20037 ft | 418 kts | 202° |
| 2026-05-07 17:50 | -20.98402 | 34.43330 | 20303 ft | 420 kts | 202° |
| 2026-05-07 17:50 | -21.01138 | 34.42353 | 20566 ft | 421 kts | 202° |
| 2026-05-07 17:51 | -21.03910 | 34.41368 | 20826 ft | 423 kts | 202° |
| 2026-05-07 17:51 | -21.06731 | 34.40367 | 21075 ft | 425 kts | 202° |
| 2026-05-07 17:51 | -21.09517 | 34.39378 | 21323 ft | 426 kts | 202° |
| 2026-05-07 17:51 | -21.12347 | 34.38372 | 21575 ft | 427 kts | 202° |
| 2026-05-07 17:52 | -21.15164 | 34.37370 | 21826 ft | 429 kts | 202° |
| 2026-05-07 17:52 | -21.18002 | 34.36359 | 22046 ft | 430 kts | 202° |
| 2026-05-07 17:52 | -21.20852 | 34.35343 | 22289 ft | 431 kts | 202° |
| 2026-05-07 17:52 | -21.23677 | 34.34335 | 22520 ft | 432 kts | 202° |
| 2026-05-07 17:53 | -21.26561 | 34.33306 | 22744 ft | 434 kts | 202° |
| 2026-05-07 17:53 | -21.29406 | 34.32290 | 22969 ft | 435 kts | 202° |
| 2026-05-07 17:53 | -21.32284 | 34.31262 | 23196 ft | 436 kts | 202° |
| 2026-05-07 17:53 | -21.35176 | 34.30229 | 23396 ft | 437 kts | 202° |
| 2026-05-07 17:54 | -21.38044 | 34.29204 | 23596 ft | 438 kts | 202° |
| 2026-05-07 17:54 | -21.40952 | 34.28164 | 23758 ft | 439 kts | 202° |
| 2026-05-07 17:54 | -21.43858 | 34.27124 | 23926 ft | 440 kts | 203° |
| 2026-05-07 17:54 | -21.46755 | 34.26087 | 24085 ft | 442 kts | 203° |
| 2026-05-07 17:55 | -21.49685 | 34.25037 | 24253 ft | 443 kts | 203° |
| 2026-05-07 17:55 | -21.52621 | 34.23986 | 24417 ft | 444 kts | 203° |
| 2026-05-07 17:55 | -21.55517 | 34.22948 | 24571 ft | 445 kts | 203° |
| 2026-05-07 17:55 | -21.58464 | 34.21892 | 24728 ft | 446 kts | 203° |
| 2026-05-07 17:56 | -21.61411 | 34.20835 | 24884 ft | 447 kts | 203° |
| 2026-05-07 17:56 | -21.64371 | 34.19772 | 25023 ft | 448 kts | 203° |
| 2026-05-07 17:56 | -21.67339 | 34.18707 | 25161 ft | 449 kts | 203° |
| 2026-05-07 17:56 | -21.70305 | 34.17642 | 25298 ft | 450 kts | 203° |
| 2026-05-07 17:57 | -21.73289 | 34.16569 | 25444 ft | 451 kts | 203° |
| 2026-05-07 17:57 | -21.75267 | 34.15858 | 25536 ft | 452 kts | 203° |
| 2026-05-07 17:57 | -21.79233 | 34.14433 | 25718 ft | 453 kts | 203° |
| 2026-05-07 17:57 | -21.82231 | 34.13354 | 25852 ft | 454 kts | 203° |
| 2026-05-07 17:58 | -21.85244 | 34.12269 | 25976 ft | 455 kts | 204° |
| 2026-05-07 17:58 | -21.88246 | 34.11188 | 26109 ft | 456 kts | 204° |
| 2026-05-07 17:58 | -21.91239 | 34.10110 | 26244 ft | 457 kts | 204° |
| 2026-05-07 17:58 | -21.94282 | 34.09013 | 26366 ft | 458 kts | 204° |
| 2026-05-07 17:59 | -21.97291 | 34.07928 | 26483 ft | 459 kts | 204° |
| 2026-05-07 17:59 | -22.00309 | 34.06839 | 26600 ft | 460 kts | 204° |
| 2026-05-07 17:59 | -22.03381 | 34.05731 | 26719 ft | 461 kts | 204° |
| 2026-05-07 17:59 | -22.06419 | 34.04634 | 26852 ft | 462 kts | 204° |
| 2026-05-07 18:00 | -22.09457 | 34.03536 | 26964 ft | 463 kts | 204° |
| 2026-05-07 18:00 | -22.12506 | 34.02434 | 27073 ft | 464 kts | 204° |
| 2026-05-07 18:00 | -22.15601 | 34.01313 | 27186 ft | 465 kts | 204° |
| 2026-05-07 18:00 | -22.18643 | 34.00199 | 27300 ft | 465 kts | 204° |
| 2026-05-07 18:01 | -22.21712 | 33.99068 | 27406 ft | 466 kts | 204° |
| 2026-05-07 18:01 | -22.24796 | 33.97929 | 27516 ft | 467 kts | 204° |
| 2026-05-07 18:01 | -22.27857 | 33.96798 | 27632 ft | 468 kts | 204° |
| 2026-05-07 18:01 | -22.30913 | 33.95671 | 27733 ft | 468 kts | 204° |
| 2026-05-07 18:02 | -22.37076 | 33.93398 | 28025 ft | 468 kts | 204° |
| 2026-05-07 18:02 | -22.40178 | 33.92254 | 28198 ft | 467 kts | 205° |
| 2026-05-07 18:02 | -22.43236 | 33.91125 | 28339 ft | 467 kts | 205° |
| 2026-05-07 18:03 | -22.46342 | 33.89977 | 28481 ft | 467 kts | 205° |
| 2026-05-07 18:03 | -22.49403 | 33.88846 | 28646 ft | 467 kts | 205° |
| 2026-05-07 18:03 | -22.52476 | 33.87711 | 28800 ft | 466 kts | 205° |
| 2026-05-07 18:03 | -22.55556 | 33.86574 | 28964 ft | 466 kts | 205° |
| 2026-05-07 18:04 | -22.58600 | 33.85449 | 29124 ft | 466 kts | 205° |
| 2026-05-07 18:04 | -22.61672 | 33.84313 | 29292 ft | 465 kts | 205° |
| 2026-05-07 18:04 | -22.64752 | 33.83174 | 29472 ft | 465 kts | 205° |
| 2026-05-07 18:04 | -22.67785 | 33.82051 | 29638 ft | 465 kts | 205° |
| 2026-05-07 18:05 | -22.70851 | 33.80916 | 29801 ft | 465 kts | 205° |
| 2026-05-07 18:05 | -22.73917 | 33.79779 | 29970 ft | 465 kts | 205° |
| 2026-05-07 18:05 | -22.76957 | 33.78652 | 30138 ft | 464 kts | 205° |
| 2026-05-07 18:05 | -22.80016 | 33.77518 | 30301 ft | 463 kts | 205° |
| 2026-05-07 18:06 | -22.83071 | 33.76385 | 30466 ft | 462 kts | 205° |
| 2026-05-07 18:06 | -22.86121 | 33.75253 | 30625 ft | 462 kts | 205° |
| 2026-05-07 18:06 | -22.89129 | 33.74135 | 30773 ft | 461 kts | 205° |
| 2026-05-07 18:06 | -22.92171 | 33.73004 | 30938 ft | 461 kts | 205° |
| 2026-05-07 18:07 | -22.95183 | 33.71884 | 31108 ft | 460 kts | 205° |
| 2026-05-07 18:07 | -22.98229 | 33.70751 | 31276 ft | 459 kts | 205° |
| 2026-05-07 18:07 | -23.01250 | 33.69627 | 31433 ft | 459 kts | 205° |
| 2026-05-07 18:07 | -23.04267 | 33.68503 | 31575 ft | 458 kts | 205° |
| 2026-05-07 18:08 | -23.07302 | 33.67373 | 31730 ft | 458 kts | 205° |
| 2026-05-07 18:08 | -23.10279 | 33.66263 | 31893 ft | 457 kts | 205° |
| 2026-05-07 18:08 | -23.13302 | 33.65136 | 32034 ft | 457 kts | 205° |
| 2026-05-07 18:08 | -23.16320 | 33.64010 | 32189 ft | 456 kts | 205° |
| 2026-05-07 18:09 | -23.19285 | 33.62903 | 32354 ft | 455 kts | 205° |
| 2026-05-07 18:09 | -23.22308 | 33.61774 | 32505 ft | 455 kts | 206° |
| 2026-05-07 18:09 | -23.25281 | 33.60663 | 32632 ft | 455 kts | 206° |
| 2026-05-07 18:09 | -23.28268 | 33.59546 | 32765 ft | 454 kts | 206° |
| 2026-05-07 18:10 | -23.31266 | 33.58394 | 32912 ft | 453 kts | 207° |
| 2026-05-07 18:10 | -23.34177 | 33.57217 | 33089 ft | 451 kts | 207° |
| 2026-05-07 18:10 | -23.37127 | 33.56003 | 33293 ft | 449 kts | 207° |
| 2026-05-07 18:10 | -23.40031 | 33.54808 | 33466 ft | 447 kts | 207° |
| 2026-05-07 18:11 | -23.42918 | 33.53624 | 33610 ft | 447 kts | 207° |
| 2026-05-07 18:11 | -23.48766 | 33.51243 | 33841 ft | 447 kts | 207° |
| 2026-05-07 18:12 | -23.54543 | 33.48900 | 33945 ft | 446 kts | 207° |
| 2026-05-07 18:12 | -23.60369 | 33.46548 | 33956 ft | 448 kts | 207° |
| 2026-05-07 18:13 | -23.66204 | 33.44194 | 33953 ft | 448 kts | 207° |
| 2026-05-07 18:13 | -23.72069 | 33.41824 | 33949 ft | 449 kts | 207° |
| 2026-05-07 18:14 | -23.77944 | 33.39446 | 33945 ft | 449 kts | 207° |
| 2026-05-07 18:14 | -23.83792 | 33.37077 | 33939 ft | 449 kts | 207° |
| 2026-05-07 18:15 | -23.89627 | 33.34711 | 33936 ft | 448 kts | 207° |
| 2026-05-07 18:15 | -23.95453 | 33.32346 | 33935 ft | 447 kts | 207° |
| 2026-05-07 18:16 | -24.01282 | 33.29978 | 33931 ft | 446 kts | 208° |
| 2026-05-07 18:16 | -24.07110 | 33.27607 | 33930 ft | 445 kts | 208° |
| 2026-05-07 18:17 | -24.12897 | 33.25250 | 33927 ft | 444 kts | 208° |
| 2026-05-07 18:17 | -24.18712 | 33.22880 | 33925 ft | 444 kts | 208° |
| 2026-05-07 18:18 | -24.24480 | 33.20527 | 33923 ft | 443 kts | 208° |
| 2026-05-07 18:18 | -24.30233 | 33.18177 | 33920 ft | 443 kts | 208° |
| 2026-05-07 18:19 | -24.36024 | 33.15810 | 33915 ft | 443 kts | 208° |
| 2026-05-07 18:19 | -24.41779 | 33.13455 | 33909 ft | 443 kts | 208° |
| 2026-05-07 18:20 | -24.47566 | 33.11084 | 33908 ft | 443 kts | 208° |
| 2026-05-07 18:20 | -24.52380 | 33.09110 | 33912 ft | 443 kts | 208° |
| 2026-05-07 18:21 | -24.58136 | 33.06749 | 33921 ft | 444 kts | 208° |
| 2026-05-07 18:21 | -24.64019 | 33.04558 | 33906 ft | 448 kts | 205° |
| 2026-05-07 18:22 | -24.69982 | 33.02504 | 33919 ft | 449 kts | 206° |
| 2026-05-07 18:22 | -24.75943 | 33.00405 | 33899 ft | 449 kts | 206° |
| 2026-05-07 18:23 | -24.81895 | 32.98281 | 33898 ft | 450 kts | 206° |
| 2026-05-07 18:23 | -24.87844 | 32.96157 | 33904 ft | 451 kts | 206° |
| 2026-05-07 18:24 | -24.93809 | 32.94025 | 33899 ft | 451 kts | 206° |
| 2026-05-07 18:24 | -24.99810 | 32.91879 | 33901 ft | 452 kts | 206° |
| 2026-05-07 18:25 | -25.05767 | 32.89745 | 33895 ft | 452 kts | 206° |
| 2026-05-07 18:25 | -25.11758 | 32.87598 | 33892 ft | 452 kts | 206° |
| 2026-05-07 18:26 | -25.17749 | 32.85447 | 33895 ft | 452 kts | 207° |
| 2026-05-07 18:26 | -25.23755 | 32.83290 | 33888 ft | 452 kts | 207° |
| 2026-05-07 18:27 | -25.29694 | 32.81151 | 33892 ft | 452 kts | 207° |
| 2026-05-07 18:27 | -25.35712 | 32.78981 | 33891 ft | 453 kts | 207° |
| 2026-05-07 18:28 | -25.41681 | 32.76826 | 33889 ft | 453 kts | 207° |
| 2026-05-07 18:28 | -25.47670 | 32.74662 | 33886 ft | 453 kts | 207° |
| 2026-05-07 18:29 | -25.53683 | 32.72486 | 33876 ft | 453 kts | 207° |
| 2026-05-07 18:29 | -25.59657 | 32.70323 | 33889 ft | 453 kts | 207° |
| 2026-05-07 18:30 | -25.65634 | 32.68156 | 33885 ft | 453 kts | 207° |
| 2026-05-07 18:30 | -25.71642 | 32.65975 | 33893 ft | 453 kts | 207° |
| 2026-05-07 18:31 | -25.77664 | 32.63787 | 33889 ft | 454 kts | 207° |
| 2026-05-07 18:31 | -25.83651 | 32.61610 | 33890 ft | 455 kts | 207° |
| 2026-05-07 18:32 | -25.89817 | 32.59785 | 33888 ft | 465 kts | 199° |
| 2026-05-07 18:32 | -25.96267 | 32.58681 | 33892 ft | 468 kts | 197° |
| 2026-05-07 18:33 | -26.02552 | 32.57657 | 33888 ft | 467 kts | 198° |
| 2026-05-07 18:33 | -26.08975 | 32.56564 | 33890 ft | 466 kts | 198° |
| 2026-05-07 18:34 | -26.15402 | 32.55439 | 33886 ft | 465 kts | 198° |
| 2026-05-07 18:34 | -26.21778 | 32.54315 | 33890 ft | 465 kts | 198° |
| 2026-05-07 18:35 | -26.28149 | 32.53191 | 33891 ft | 464 kts | 199° |
| 2026-05-07 18:35 | -26.34531 | 32.52066 | 33891 ft | 463 kts | 199° |
| 2026-05-07 18:36 | -26.40889 | 32.50943 | 33899 ft | 463 kts | 199° |
| 2026-05-07 18:36 | -26.47262 | 32.49817 | 33895 ft | 462 kts | 199° |
| 2026-05-07 18:37 | -26.53591 | 32.48698 | 33895 ft | 462 kts | 199° |
| 2026-05-07 18:37 | -26.59945 | 32.47572 | 33911 ft | 462 kts | 199° |
| 2026-05-07 18:38 | -26.66310 | 32.46444 | 33916 ft | 462 kts | 199° |
| 2026-05-07 18:38 | -26.72649 | 32.45318 | 33906 ft | 462 kts | 199° |
| 2026-05-07 18:39 | -26.79010 | 32.44188 | 33913 ft | 462 kts | 199° |
| 2026-05-07 18:39 | -26.85362 | 32.43058 | 33913 ft | 463 kts | 199° |
| 2026-05-07 18:40 | -26.91757 | 32.41928 | 33911 ft | 465 kts | 199° |
| 2026-05-07 18:40 | -26.98132 | 32.40809 | 33909 ft | 466 kts | 199° |
| 2026-05-07 18:41 | -27.04397 | 32.39365 | 33901 ft | 458 kts | 205° |
| 2026-05-07 18:41 | -27.10566 | 32.37522 | 33907 ft | 457 kts | 206° |
| 2026-05-07 18:42 | -27.16710 | 32.35668 | 33902 ft | 458 kts | 205° |
| 2026-05-07 18:42 | -27.22907 | 32.33850 | 33908 ft | 459 kts | 205° |
| 2026-05-07 18:43 | -27.29084 | 32.32067 | 33902 ft | 460 kts | 205° |
| 2026-05-07 18:43 | -27.35274 | 32.30284 | 33897 ft | 460 kts | 205° |
| 2026-05-07 18:44 | -27.41487 | 32.28493 | 33906 ft | 460 kts | 205° |
| 2026-05-07 18:44 | -27.47713 | 32.26693 | 33900 ft | 460 kts | 205° |
| 2026-05-07 18:45 | -27.53898 | 32.24903 | 33906 ft | 461 kts | 205° |
| 2026-05-07 18:45 | -27.59925 | 32.23156 | 33917 ft | 461 kts | 205° |
| 2026-05-07 18:46 | -27.66132 | 32.21355 | 33910 ft | 461 kts | 205° |
| 2026-05-07 18:46 | -27.72347 | 32.19550 | 33908 ft | 461 kts | 205° |
| 2026-05-07 18:47 | -27.78572 | 32.17739 | 33913 ft | 461 kts | 205° |
| 2026-05-07 18:47 | -27.84758 | 32.15939 | 33913 ft | 460 kts | 205° |
| 2026-05-07 18:48 | -27.90974 | 32.14127 | 33912 ft | 460 kts | 205° |
| 2026-05-07 18:48 | -27.97161 | 32.12322 | 33889 ft | 460 kts | 205° |
| 2026-05-07 18:49 | -28.03291 | 32.10537 | 33900 ft | 454 kts | 205° |
| 2026-05-07 18:49 | -28.09339 | 32.08771 | 33911 ft | 445 kts | 205° |
| 2026-05-07 18:49 | -28.12344 | 32.07891 | 33775 ft | 445 kts | 205° |
| 2026-05-07 18:50 | -28.15345 | 32.07010 | 33411 ft | 440 kts | 205° |
| 2026-05-07 18:50 | -28.18255 | 32.06161 | 33053 ft | 432 kts | 205° |
| 2026-05-07 18:50 | -28.21156 | 32.05314 | 32667 ft | 426 kts | 205° |
| 2026-05-07 18:50 | -28.24033 | 32.04472 | 32296 ft | 420 kts | 205° |
| 2026-05-07 18:51 | -28.26817 | 32.03654 | 31926 ft | 414 kts | 205° |
| 2026-05-07 18:51 | -28.29594 | 32.02838 | 31564 ft | 409 kts | 205° |
| 2026-05-07 18:51 | -28.32348 | 32.02027 | 31169 ft | 404 kts | 205° |
| 2026-05-07 18:51 | -28.35019 | 32.01240 | 30838 ft | 398 kts | 205° |
| 2026-05-07 18:52 | -28.37693 | 32.00452 | 30486 ft | 393 kts | 205° |
| 2026-05-07 18:52 | -28.40388 | 31.99792 | 30140 ft | 397 kts | 198° |
| 2026-05-07 18:52 | -28.43127 | 31.99407 | 29789 ft | 406 kts | 195° |
| 2026-05-07 18:52 | -28.45994 | 31.99059 | 29382 ft | 419 kts | 195° |
| 2026-05-07 18:53 | -28.48875 | 31.98714 | 28940 ft | 418 kts | 194° |
| 2026-05-07 18:53 | -28.51761 | 31.98379 | 28538 ft | 412 kts | 194° |
| 2026-05-07 18:53 | -28.54598 | 31.98058 | 28153 ft | 405 kts | 194° |
| 2026-05-07 18:53 | -28.57365 | 31.97752 | 27712 ft | 401 kts | 194° |
| 2026-05-07 18:54 | -28.60166 | 31.97440 | 27063 ft | 404 kts | 194° |
| 2026-05-07 18:54 | -28.62977 | 31.97123 | 26458 ft | 405 kts | 194° |
| 2026-05-07 18:54 | -28.65781 | 31.96805 | 25857 ft | 405 kts | 194° |
| 2026-05-07 18:54 | -28.68460 | 31.96498 | 25299 ft | 406 kts | 194° |
| 2026-05-07 18:55 | -28.71235 | 31.96179 | 24731 ft | 405 kts | 194° |
| 2026-05-07 18:55 | -28.74039 | 31.95856 | 24165 ft | 405 kts | 194° |
| 2026-05-07 18:55 | -28.76859 | 31.95530 | 23602 ft | 404 kts | 194° |
| 2026-05-07 18:55 | -28.79618 | 31.95210 | 22975 ft | 403 kts | 194° |
| 2026-05-07 18:56 | -28.82398 | 31.94882 | 22327 ft | 401 kts | 193° |
| 2026-05-07 18:56 | -28.85170 | 31.94549 | 21684 ft | 395 kts | 193° |
| 2026-05-07 18:56 | -28.87878 | 31.94216 | 21093 ft | 389 kts | 193° |
| 2026-05-07 18:56 | -28.90562 | 31.93881 | 20659 ft | 380 kts | 193° |
| 2026-05-07 18:57 | -28.93147 | 31.93554 | 20215 ft | 372 kts | 193° |
| 2026-05-07 18:57 | -28.95669 | 31.93083 | 19752 ft | 356 kts | 205° |
| 2026-05-07 18:57 | -28.97906 | 31.92060 | 19349 ft | 343 kts | 212° |
| 2026-05-07 18:57 | -29.00001 | 31.90931 | 18933 ft | 336 kts | 213° |
| 2026-05-07 18:58 | -29.02105 | 31.89755 | 18509 ft | 330 kts | 213° |
| 2026-05-07 18:58 | -29.04178 | 31.88583 | 18079 ft | 327 kts | 213° |
| 2026-05-07 18:58 | -29.06185 | 31.87434 | 17622 ft | 323 kts | 213° |
| 2026-05-07 18:58 | -29.08172 | 31.86281 | 17152 ft | 320 kts | 213° |
| 2026-05-07 18:59 | -29.10152 | 31.85114 | 16693 ft | 318 kts | 213° |
| 2026-05-07 18:59 | -29.12116 | 31.83941 | 16232 ft | 315 kts | 213° |
| 2026-05-07 18:59 | -29.14034 | 31.82780 | 15798 ft | 314 kts | 213° |
| 2026-05-07 18:59 | -29.15955 | 31.81598 | 15358 ft | 312 kts | 213° |
| 2026-05-07 19:00 | -29.17864 | 31.80404 | 14926 ft | 310 kts | 213° |
| 2026-05-07 19:00 | -29.19739 | 31.79215 | 14501 ft | 309 kts | 213° |
| 2026-05-07 19:00 | -29.21600 | 31.78018 | 14089 ft | 308 kts | 213° |
| 2026-05-07 19:00 | -29.23473 | 31.76796 | 13656 ft | 307 kts | 213° |
| 2026-05-07 19:01 | -29.25304 | 31.75586 | 13181 ft | 306 kts | 213° |
| 2026-05-07 19:01 | -29.27154 | 31.74352 | 12720 ft | 305 kts | 213° |
| 2026-05-07 19:01 | -29.28983 | 31.73124 | 12261 ft | 304 kts | 213° |
| 2026-05-07 19:01 | -29.30783 | 31.71907 | 11817 ft | 302 kts | 213° |
| 2026-05-07 19:02 | -29.32589 | 31.70680 | 11363 ft | 298 kts | 213° |
| 2026-05-07 19:02 | -29.34364 | 31.69467 | 10926 ft | 294 kts | 213° |
| 2026-05-07 19:02 | -29.36107 | 31.68274 | 10476 ft | 289 kts | 213° |
| 2026-05-07 19:02 | -29.37806 | 31.67105 | 10045 ft | 285 kts | 213° |
| 2026-05-07 19:03 | -29.38933 | 31.66327 | 9765 ft | 283 kts | 213° |
| 2026-05-07 19:03 | -29.40618 | 31.65161 | 9285 ft | 279 kts | 213° |
| 2026-05-07 19:03 | -29.42812 | 31.63641 | 8639 ft | 277 kts | 213° |
| 2026-05-07 19:03 | -29.44462 | 31.62495 | 8136 ft | 276 kts | 213° |
| 2026-05-07 19:04 | -29.45557 | 31.61735 | 7804 ft | 276 kts | 213° |
| 2026-05-07 19:04 | -29.47197 | 31.60597 | 7362 ft | 276 kts | 213° |
| 2026-05-07 19:04 | -29.48841 | 31.59455 | 7059 ft | 275 kts | 213° |
| 2026-05-07 19:04 | -29.50307 | 31.58102 | 6719 ft | 272 kts | 235° |
| 2026-05-07 19:05 | -29.51269 | 31.56236 | 6438 ft | 269 kts | 243° |
| 2026-05-07 19:05 | -29.52165 | 31.54343 | 6111 ft | 270 kts | 243° |
| 2026-05-07 19:05 | -29.53343 | 31.51830 | 5686 ft | 270 kts | 243° |
| 2026-05-07 19:05 | -29.53942 | 31.50541 | 5459 ft | 270 kts | 243° |
| 2026-05-07 19:06 | -29.54803 | 31.48682 | 5115 ft | 264 kts | 243° |
| 2026-05-07 19:06 | -29.56501 | 31.45001 | 4361 ft | 257 kts | 243° |
| 2026-05-07 19:06 | -29.57324 | 31.43187 | 3988 ft | 254 kts | 243° |
| 2026-05-07 19:07 | -29.58129 | 31.41384 | 3607 ft | 251 kts | 243° |
| 2026-05-07 19:07 | -29.58905 | 31.39612 | 3243 ft | 249 kts | 243° |
| 2026-05-07 19:07 | -29.59660 | 31.37862 | 3008 ft | 240 kts | 243° |
| 2026-05-07 19:07 | -29.60378 | 31.36180 | 2978 ft | 226 kts | 243° |
| 2026-05-07 19:08 | -29.61061 | 31.34579 | 2824 ft | 227 kts | 243° |
| 2026-05-07 19:08 | -29.61767 | 31.32934 | 2583 ft | 231 kts | 243° |
| 2026-05-07 19:08 | -29.62479 | 31.31279 | 2514 ft | 227 kts | 243° |
| 2026-05-07 19:08 | -29.63171 | 31.29670 | 2486 ft | 223 kts | 243° |
| 2026-05-07 19:09 | -29.63853 | 31.28089 | 2478 ft | 221 kts | 243° |
| 2026-05-07 19:09 | -29.64541 | 31.26501 | 2482 ft | 220 kts | 243° |
| 2026-05-07 19:09 | -29.65276 | 31.24970 | 2489 ft | 222 kts | 234° |
| 2026-05-07 19:09 | -29.66201 | 31.23521 | 2505 ft | 226 kts | 233° |
| 2026-05-07 19:10 | -29.67137 | 31.22066 | 2492 ft | 226 kts | 233° |
| 2026-05-07 19:10 | -29.68072 | 31.20615 | 2490 ft | 225 kts | 233° |
| 2026-05-07 19:10 | -29.68993 | 31.19187 | 2493 ft | 224 kts | 233° |
| 2026-05-07 19:10 | -29.69922 | 31.17748 | 2487 ft | 223 kts | 233° |
| 2026-05-07 19:11 | -29.70843 | 31.16322 | 2495 ft | 222 kts | 233° |
| 2026-05-07 19:11 | -29.71767 | 31.14892 | 2496 ft | 221 kts | 233° |
| 2026-05-07 19:11 | -29.72676 | 31.13486 | 2488 ft | 221 kts | 233° |
| 2026-05-07 19:11 | -29.73593 | 31.12069 | 2493 ft | 220 kts | 233° |
| 2026-05-07 19:12 | -29.74514 | 31.10650 | 2488 ft | 220 kts | 233° |
| 2026-05-07 19:12 | -29.75432 | 31.09238 | 2484 ft | 219 kts | 233° |
| 2026-05-07 19:12 | -29.76343 | 31.07840 | 2489 ft | 219 kts | 233° |
| 2026-05-07 19:12 | -29.77263 | 31.06429 | 2499 ft | 219 kts | 233° |
| 2026-05-07 19:13 | -29.78167 | 31.05044 | 2493 ft | 219 kts | 234° |
| 2026-05-07 19:13 | -29.78686 | 31.03422 | 2476 ft | 217 kts | 273° |
| 2026-05-07 19:13 | -29.78162 | 31.01858 | 2484 ft | 215 kts | 314° |
| 2026-05-07 19:13 | -29.76903 | 31.01041 | 2513 ft | 203 kts | 342° |
| 2026-05-07 19:14 | -29.75585 | 31.00562 | 2492 ft | 191 kts | 342° |
| 2026-05-07 19:14 | -29.74353 | 31.00169 | 2472 ft | 182 kts | 356° |
| 2026-05-07 19:14 | -29.73202 | 31.00598 | 2486 ft | 177 kts | 47° |
| 2026-05-07 19:14 | -29.72476 | 31.01758 | 2514 ft | 180 kts | 49° |
| 2026-05-07 19:15 | -29.71554 | 31.02735 | 2447 ft | 182 kts | 41° |
| 2026-05-07 19:15 | -29.70583 | 31.03670 | 2241 ft | 181 kts | 39° |
| 2026-05-07 19:15 | -29.69616 | 31.04532 | 1999 ft | 172 kts | 38° |
| 2026-05-07 19:15 | -29.68696 | 31.05338 | 1783 ft | 160 kts | 38° |
| 2026-05-07 19:16 | -29.67821 | 31.06104 | 1585 ft | 156 kts | 38° |
| 2026-05-07 19:16 | -29.66954 | 31.06863 | 1401 ft | 158 kts | 38° |
| 2026-05-07 19:16 | -29.66082 | 31.07627 | 1201 ft | 159 kts | 38° |
| 2026-05-07 19:16 | -29.65198 | 31.08400 | 989 ft | 158 kts | 38° |
| 2026-05-07 19:17 | -29.64325 | 31.09166 | 781 ft | 157 kts | 38° |
| 2026-05-07 19:17 | -29.63465 | 31.09919 | 577 ft | 157 kts | 38° |
| 2026-05-07 19:17 | -29.62606 | 31.10686 | 364 ft | 153 kts | 38° |
| 2026-05-07 19:17 | -29.61794 | 31.11398 | 298 ft | 135 kts | 37° |
| 2026-05-07 19:18 | -29.61159 | 31.11947 | 302 ft | 92 kts | 37° |
| 2026-05-07 19:18 | -29.60772 | 31.12284 | 302 ft | 50 kts | 37° |
| 2026-05-07 19:18 | -29.60581 | 31.12447 | 305 ft | 29 kts | 37° |
| 2026-05-07 19:18 | -29.60397 | 31.12607 | 307 ft | 38 kts | 38° |
| 2026-05-07 19:19 | -29.60167 | 31.12806 | 307 ft | 44 kts | 37° |
| 2026-05-07 19:19 | -29.59933 | 31.13008 | 309 ft | 29 kts | 37° |
| 2026-05-07 19:19 | -29.59818 | 31.13021 | 308 ft | 12 kts | 316° |
| 2026-05-07 19:19 | -29.59776 | 31.12943 | 309 ft | 12 kts | 282° |
| 2026-05-07 19:20 | -29.59786 | 31.12899 | 308 ft | 4 kts | 226° |
| 2026-05-07 19:20 | -29.59822 | 31.12867 | 309 ft | 9 kts | 216° |
| 2026-05-07 19:20 | -29.59879 | 31.12819 | 309 ft | 10 kts | 218° |
| 2026-05-07 19:20 | -29.59934 | 31.12769 | 308 ft | 10 kts | 218° |
| 2026-05-07 19:21 | -29.59988 | 31.12722 | 311 ft | 10 kts | 217° |
| 2026-05-07 19:21 | -29.60041 | 31.12676 | 308 ft | 9 kts | 217° |
| 2026-05-07 19:21 | -29.60092 | 31.12631 | 308 ft | 9 kts | 217° |
| 2026-05-07 19:21 | -29.60143 | 31.12587 | 308 ft | 10 kts | 217° |
| 2026-05-07 19:22 | -29.60205 | 31.12533 | 307 ft | 13 kts | 217° |
| 2026-05-07 19:22 | -29.60285 | 31.12463 | 307 ft | 16 kts | 217° |
| 2026-05-07 19:22 | -29.60378 | 31.12383 | 306 ft | 18 kts | 217° |
| 2026-05-07 19:22 | -29.60485 | 31.12291 | 307 ft | 20 kts | 217° |
| 2026-05-07 19:23 | -29.60600 | 31.12192 | 306 ft | 22 kts | 217° |
| 2026-05-07 19:23 | -29.60727 | 31.12082 | 304 ft | 23 kts | 217° |
| 2026-05-07 19:23 | -29.60858 | 31.11966 | 303 ft | 24 kts | 219° |
| 2026-05-07 19:23 | -29.60990 | 31.11850 | 303 ft | 23 kts | 217° |
| 2026-05-07 19:24 | -29.61123 | 31.11736 | 302 ft | 25 kts | 217° |
| 2026-05-07 19:24 | -29.61264 | 31.11610 | 301 ft | 26 kts | 217° |
| 2026-05-07 19:24 | -29.61410 | 31.11483 | 302 ft | 27 kts | 217° |
| 2026-05-07 19:24 | -29.61566 | 31.11349 | 299 ft | 28 kts | 217° |